Marcellus, MI (49067)

4:09 PM EST on March 02, 2015 (GMT -0500)
Farming/Agriculture | Change Station
CLOSE
Current Station
Personal Weather Station
Location: Decatur, MI
Elevation: 864 ft
Nearby Weather Stations
Active Advisory: Winter Weather Advisory

Elev 864 ft 42.05 °N, 85.91 °W | Updated 7 seconds ago

Partly Cloudy
Partly Cloudy
34.3 °F
Feels Like 34 °F
N
0.0
Wind Variable Wind from NW
Gusts 0.0 mph

Today
High -- | Low -- °F
--% Chance of Precip.
Yesterday
High -- | Low -- °F
Precip. -- in
7:17 AM 6:34 PM
Waxing Gibbous, 93% visible
Pressure 30.44 in
Visibility 10.0 miles
Clouds Clear
Windchill 34 °F
Dew Point 15 °F
Humidity 44%
Rainfall 0.00 in
Snow Depth Not available.
UV 2 out of 12
Pollen .40 out of 12
Air Quality Not available.
Flu Activity Not available.
METAR KHAI 022057Z AUTO 28006KT 10SM CLR M01/M10 A3044 RMK AO2

More Conditions Fewer Conditions

Pressure 30.44 in
Visibility 10.0 miles
Clouds Clear
Windchill 34 °F
Dew Point 15 °F
Humidity 44%
Rainfall 0.00 in
Snow Depth Not available.
UV 2 out of 12
Pollen .40 out of 12
Air Quality Not available.
Flu Activity Not available.
METAR KHAI 022057Z AUTO 28006KT 10SM CLR M01/M10 A3044 RMK AO2

More Conditions Fewer Conditions

10-Day Weather Forecast

Almanac

Astronomy

Mar. 02, 2015 Rise Set
Actual Time
Civil Twilight
Nautical Twilight
Astronomical Twilight
Moon
Length of Visible Light
Length of Day
Tomorrow will be .
, % of the Moon is Illuminated

Today's Extremes

State Highs State Lows

Community

WunderPhotos

Upload Photos

1,801,943 photos uploaded!

WunderBlogs® & News

Nearby

Air Quality

  Air Quality AQ Index Pollutant
Not available.

Snow Depth

Station Depth Elevation

Earthquake Activity

City Distance Mag. Time & Date
Minimum magnitude displayed is 2.5.

Coastal Water Temperatures

Place Temperature

Nearby Weather Stations

Winter Weather Advisory
Statement as of 2:02 PM CST on March 02, 2015

... Winter Weather Advisory in effect from 6 am EST /5 am CST/ to
1 PM EST /noon CST/ Tuesday...

The National Weather Service in northern Indiana has issued a
Winter Weather Advisory for freezing rain and sleet... which is in
effect from 6 am EST /5 am CST/ to 1 PM EST /noon CST/ Tuesday.

Hazardous weather...

* freezing rain spreads from southwest /6 am EST/ to northeast /9
   am EST/.

* The precipitation will start as a mixture of sleet... freezing
   rain and snow.

* Expect 1 to 2 hours of freezing rain before changing to all
   rain. Rain will overspread the area by or before 1 PM EST.

Impacts...

* sheltered roads... overpasses and intersections will be icy and
   dangerous.

* Sidewalks and driveways will be icy and dangerous.

* Morning commute will be affected.

Precautionary/preparedness actions...

A Winter Weather Advisory means that periods of snow... sleet... or
freezing rain will cause travel difficulties. Be prepared for
dangerous driving conditions and limited visibility... and use
extra caution while driving.